Main page
Satellite images 10-day forecastsClimateMarine weather Cyclones Lightning AirportsFAQ Newsletter About
Weather : Europe Africa North America South America Asia Australia-Oceania Others
Languages Contact

Milan, Italy

Malpensa Airport

latitude: 45-37N, longitude: 008-44E, elevation: 234 m


METAR: LIMC 191520Z 18005KT 150V220 9999 SCT040 SCT060 14/01 Q1019 NOSIG
TAF: LIMC 191100Z 1912/2018 18007KT 9999 SCT050

Time: 17:38 (15:38 UTC)

Current weather observation

The report was made 18 minutes ago, at 15:20 UTC
Wind 5 kt from the South, varying between South/Southeast and Southwest
Temperature 14°C
Humidity 41%
Pressure 1019 hPa
Visibility 10 km or more
Scattered clouds at a height of 4000 ft
Scattered clouds at a height of 6000 ft

Change units

Forecast

The report was made 4 hours and 38 minutes ago, at 11:00 UTC
Forecast valid from 19 at 12 UTC to 20 at 18 UTC
Wind 7 kt from the South
Visibility 10 km or more
Scattered clouds at a height of 5000 ft
The information on this site is subject to a disclaimer
Weather : Europe Africa North America South America Asia Australia-Oceania Others
Satellite images 10-day forecastsClimateMarine weather Cyclones Lightning AirportsFAQ Languages Contact Newsletter About